Time;durP1;ratioP1;P1;durP2;ratioP2;P2;SDS_P1;SDS_P2;PMS_P1;PMS_P2;Temp;Humidity;BMP_temperature;BMP_pressure;BME280_temperature;BME280_humidity;BME280_pressure;Samples;Min_cycle;Max_cycle;Signal;HPM_P1;HPM_P2
2022/11/11 00:00:15;;;;;;;7.93;2.47;;;11.10;99.90;;;;;;6362458;28;20285;-67
2022/11/11 00:03:39;;;;;;;6.25;1.50;;;11.10;99.90;;;;;;6363225;27;20384;-67
2022/11/11 00:07:04;;;;;;;5.43;1.92;;;11.10;99.90;;;;;;6363413;28;20266;-67
2022/11/11 00:10:29;;;;;;;2.45;1.40;;;11.10;99.90;;;;;;6362883;28;20356;-67
2022/11/11 00:13:52;;;;;;;3.92;1.77;;;11.10;99.90;;;;;;6363182;28;20628;-67
2022/11/11 00:28:23;;;;;;;4.45;1.65;;;11.20;99.90;;;;;;6362637;28;20395;-67
2022/11/11 00:39:13;;;;;;;2.38;1.60;;;11.30;99.90;;;;;;6362411;28;20294;-67
2022/11/11 00:42:36;;;;;;;6.22;2.35;;;11.30;99.90;;;;;;6362006;28;20294;-66
2022/11/11 00:53:21;;;;;;;3.58;1.45;;;11.50;99.90;;;;;;6361619;28;20293;-66
2022/11/11 00:56:50;;;;;;;1.80;1.60;;;11.50;99.90;;;;;;6361829;28;20265;-66
2022/11/11 01:00:15;;;;;;;2.45;1.85;;;11.50;99.90;;;;;;6361118;28;20302;-66
2022/11/11 01:03:39;;;;;;;5.00;1.58;;;11.50;99.90;;;;;;6387190;27;20285;-66
2022/11/11 01:07:02;;;;;;;1.50;1.40;;;11.50;99.90;;;;;;6387711;27;20260;-66
2022/11/11 01:10:40;;;;;;;2.25;1.48;;;11.50;99.90;;;;;;6386504;27;20272;-66
2022/11/11 01:14:06;;;;;;;4.55;1.67;;;11.60;99.90;;;;;;6386661;27;20288;-66
2022/11/11 01:17:49;;;;;;;2.60;1.60;;;11.60;99.90;;;;;;6386638;27;20288;-67
2022/11/11 01:21:16;;;;;;;4.55;1.45;;;11.60;99.90;;;;;;6387354;27;20268;-67
2022/11/11 01:24:54;;;;;;;6.50;1.50;;;11.70;99.90;;;;;;6386059;27;20292;-67
2022/11/11 01:28:20;;;;;;;1.63;1.30;;;11.70;99.90;;;;;;6386764;27;20288;-67
2022/11/11 01:31:46;;;;;;;1.83;1.73;;;11.70;99.90;;;;;;6387296;27;20268;-67
2022/11/11 01:35:10;;;;;;;1.38;1.27;;;11.80;99.90;;;;;;6385969;27;20268;-66
2022/11/11 01:38:34;;;;;;;1.50;1.40;;;11.70;99.90;;;;;;6386372;27;20487;-66
2022/11/11 01:41:58;;;;;;;2.90;1.77;;;11.70;99.90;;;;;;6387148;27;20402;-65
2022/11/11 01:45:54;;;;;;;2.55;2.28;;;11.80;99.90;;;;;;6385970;27;20269;-66
2022/11/11 01:49:25;;;;;;;1.88;1.55;;;11.80;99.90;;;;;;6386741;27;20309;-66
2022/11/11 01:52:49;;;;;;;7.22;2.10;;;11.70;99.90;;;;;;6386546;27;20292;-66
2022/11/11 01:56:16;;;;;;;3.00;1.90;;;11.80;99.90;;;;;;6387282;28;20265;-66
2022/11/11 01:59:40;;;;;;;5.82;1.70;;;11.80;99.90;;;;;;6360395;28;20293;-66
2022/11/11 02:03:08;;;;;;;3.17;1.45;;;11.80;99.90;;;;;;6359017;28;20293;-67
2022/11/11 02:06:31;;;;;;;1.58;1.40;;;11.80;99.90;;;;;;6360858;28;20277;-67
2022/11/11 02:09:56;;;;;;;4.13;1.50;;;11.80;99.90;;;;;;6360026;28;20293;-67
2022/11/11 02:17:04;;;;;;;3.88;1.30;;;11.90;99.90;;;;;;6361211;28;20347;-67
2022/11/11 02:20:34;;;;;;;1.30;1.27;;;12.00;99.90;;;;;;6359884;28;20290;-67
2022/11/11 02:24:04;;;;;;;1.83;1.65;;;11.90;99.90;;;;;;6360117;28;20472;-67
2022/11/11 02:27:30;;;;;;;1.10;1.00;;;12.00;99.90;;;;;;6360642;28;20293;-67
2022/11/11 02:30:54;;;;;;;4.75;1.30;;;11.90;99.90;;;;;;6361208;28;20278;-68
2022/11/11 02:34:19;;;;;;;1.35;1.20;;;12.00;99.90;;;;;;6360150;28;20481;-67
2022/11/11 02:37:45;;;;;;;1.85;1.30;;;12.00;99.90;;;;;;6360287;28;20297;-67
2022/11/11 02:45:09;;;;;;;1.30;1.20;;;12.00;99.90;;;;;;6344464;28;20269;-67
2022/11/11 02:48:47;;;;;;;9.38;1.50;;;12.00;99.90;;;;;;6365214;28;20293;-66
2022/11/11 02:52:12;;;;;;;2.10;1.20;;;12.10;99.90;;;;;;6364542;28;20265;-66
2022/11/11 02:55:37;;;;;;;1.38;1.00;;;12.10;99.90;;;;;;6365356;28;20269;-66
2022/11/11 02:59:02;;;;;;;1.42;1.33;;;12.10;99.90;;;;;;6385861;27;20296;-67
2022/11/11 03:02:27;;;;;;;1.10;1.10;;;12.10;99.90;;;;;;6390038;27;20280;-67
2022/11/11 03:05:52;;;;;;;2.03;1.27;;;12.10;99.90;;;;;;6390176;27;20261;-67
2022/11/11 03:09:17;;;;;;;2.78;1.15;;;12.10;99.90;;;;;;6389819;27;20288;-66
2022/11/11 03:12:41;;;;;;;4.03;1.10;;;12.10;99.90;;;;;;6364203;28;20471;-67
2022/11/11 03:17:38;;;;;;;3.80;1.05;;;12.10;99.90;;;;;;6364512;28;20263;-67
2022/11/11 03:21:03;;;;;;;3.05;1.17;;;12.10;99.90;;;;;;6364211;28;20301;-67
2022/11/11 03:23:36;;;;;;;1.60;1.10;;;12.10;99.90;;;;;;6363868;28;20293;-66
2022/11/11 03:27:00;;;;;;;1.33;1.23;;;12.10;99.90;;;;;;6364801;28;20265;-66
2022/11/11 03:30:26;;;;;;;2.20;1.20;;;12.00;99.90;;;;;;6363318;28;20273;-67
2022/11/11 03:34:18;;;;;;;1.67;1.25;;;12.10;99.90;;;;;;6345159;28;20297;-66
2022/11/11 03:38:22;;;;;;;3.15;1.25;;;12.10;99.90;;;;;;6363693;28;20298;-66
2022/11/11 03:41:46;;;;;;;2.63;1.23;;;12.10;99.90;;;;;;6364023;28;20294;-67
2022/11/11 03:45:16;;;;;;;1.30;1.20;;;12.20;99.90;;;;;;6362909;28;20265;-67
2022/11/11 03:48:59;;;;;;;1.38;1.08;;;12.20;99.90;;;;;;6363092;28;20289;-67
2022/11/11 03:52:25;;;;;;;2.38;1.23;;;12.30;99.90;;;;;;6363651;28;20270;-67
2022/11/11 03:55:48;;;;;;;1.25;1.20;;;12.20;99.90;;;;;;6364242;28;20257;-67
2022/11/11 03:59:17;;;;;;;1.30;1.20;;;12.20;99.90;;;;;;6363017;28;20312;-66
2022/11/11 04:10:47;;;;;;;1.10;0.90;;;12.30;99.90;;;;;;6308817;28;20296;-67
2022/11/11 04:21:41;;;;;;;1.58;1.30;;;12.40;99.90;;;;;;6362900;28;20269;-67
2022/11/11 04:22:23;;;;;;;4.32;1.50;;;12.40;99.90;;;;;;6387584;27;20293;-66
2022/11/11 04:25:54;;;;;;;1.20;1.20;;;12.40;99.90;;;;;;6388403;27;20309;-66
2022/11/11 04:29:30;;;;;;;1.30;1.20;;;12.40;99.90;;;;;;6388501;27;20297;-65
2022/11/11 04:32:53;;;;;;;2.03;1.00;;;12.40;99.90;;;;;;6388552;27;20261;-67
2022/11/11 04:36:16;;;;;;;2.28;1.52;;;12.50;99.90;;;;;;6387292;27;20269;-67
2022/11/11 04:43:23;;;;;;;2.25;1.00;;;12.60;99.90;;;;;;6361909;28;20261;-67
2022/11/11 04:46:46;;;;;;;1.42;1.10;;;12.60;99.90;;;;;;6362949;28;20403;-67
2022/11/11 04:50:11;;;;;;;4.45;1.00;;;12.70;99.90;;;;;;6362218;28;20616;-67
2022/11/11 04:53:34;;;;;;;4.90;1.20;;;12.60;99.90;;;;;;6364320;27;20273;-67
2022/11/11 04:56:57;;;;;;;1.58;1.25;;;12.70;99.90;;;;;;6387980;27;20270;-68
2022/11/11 05:00:22;;;;;;;1.67;1.30;;;12.70;99.90;;;;;;6387411;27;20292;-67
2022/11/11 05:03:52;;;;;;;1.30;1.30;;;12.70;99.90;;;;;;6387451;27;20280;-66
2022/11/11 05:10:57;;;;;;;1.27;1.17;;;12.70;99.90;;;;;;6387141;27;20292;-66
2022/11/11 05:21:44;;;;;;;1.20;1.13;;;12.70;99.90;;;;;;6386728;27;20288;-67
2022/11/11 05:29:00;;;;;;;3.13;1.58;;;12.80;99.90;;;;;;6386454;27;20292;-66
2022/11/11 05:32:24;;;;;;;1.25;1.17;;;12.80;99.90;;;;;;6386829;27;20445;-67
2022/11/11 05:35:48;;;;;;;1.20;1.13;;;12.80;99.90;;;;;;6386333;27;20296;-66
2022/11/11 05:39:12;;;;;;;1.48;1.38;;;12.90;99.90;;;;;;6386644;27;20289;-66
2022/11/11 05:42:36;;;;;;;1.20;1.08;;;12.90;99.90;;;;;;6387035;27;20289;-67
2022/11/11 05:46:06;;;;;;;2.08;1.13;;;12.90;99.90;;;;;;6386554;27;20288;-66
2022/11/11 05:49:30;;;;;;;3.20;1.10;;;13.00;99.90;;;;;;6386174;27;20303;-68
2022/11/11 05:52:57;;;;;;;2.58;1.45;;;13.00;99.90;;;;;;6387081;27;20268;-66
2022/11/11 05:56:20;;;;;;;2.80;1.20;;;13.10;99.90;;;;;;6385165;27;20273;-66
2022/11/11 05:59:44;;;;;;;2.15;1.00;;;13.20;99.90;;;;;;6381303;28;20612;-66
2022/11/11 06:03:07;;;;;;;4.72;1.30;;;13.30;99.90;;;;;;6386543;28;20288;-66
2022/11/11 06:06:31;;;;;;;1.45;1.10;;;13.30;99.90;;;;;;6386037;28;20273;-66
2022/11/11 06:10:29;;;;;;;1.90;1.15;;;13.40;99.90;;;;;;6386143;28;20308;-67
2022/11/11 06:13:40;;;;;;;2.15;1.00;;;13.50;99.90;;;;;;6386327;28;20297;-66
2022/11/11 06:17:04;;;;;;;4.15;1.15;;;13.50;99.90;;;;;;6386177;28;20363;-67
2022/11/11 06:20:28;;;;;;;3.70;1.60;;;13.50;99.90;;;;;;6389538;27;20612;-67
2022/11/11 06:23:52;;;;;;;1.25;1.25;;;13.60;99.90;;;;;;6391271;27;20292;-66
2022/11/11 06:27:17;;;;;;;2.35;1.27;;;13.70;99.90;;;;;;6391219;27;20260;-66
2022/11/11 06:30:41;;;;;;;1.35;1.10;;;13.70;99.90;;;;;;6391107;27;20312;-66
2022/11/11 06:34:13;;;;;;;2.65;1.20;;;13.80;99.90;;;;;;6390528;27;20292;-66
2022/11/11 06:37:37;;;;;;;8.98;1.60;;;13.80;99.90;;;;;;6391495;27;20455;-66
2022/11/11 06:41:00;;;;;;;1.63;1.27;;;13.80;99.90;;;;;;6390865;27;20476;-66
2022/11/11 06:44:25;;;;;;;3.70;1.27;;;13.90;99.90;;;;;;6390612;27;20288;-66
2022/11/11 06:47:48;;;;;;;2.45;1.38;;;13.90;99.90;;;;;;6391130;27;20265;-66
2022/11/11 06:51:13;;;;;;;5.68;1.45;;;14.00;99.90;;;;;;6390447;27;20288;-66
2022/11/11 06:54:36;;;;;;;4.18;1.20;;;14.00;99.90;;;;;;6390370;27;20292;-67
2022/11/11 06:58:06;;;;;;;5.85;1.50;;;14.00;99.90;;;;;;6390772;27;20596;-68
2022/11/11 07:01:31;;;;;;;2.97;1.20;;;14.00;99.90;;;;;;6389937;27;20268;-67
2022/11/11 07:04:55;;;;;;;4.38;1.60;;;14.00;99.90;;;;;;6390142;27;20485;-67
2022/11/11 07:08:19;;;;;;;2.88;1.55;;;14.10;99.90;;;;;;6389715;27;20265;-66
2022/11/11 07:11:42;;;;;;;6.88;1.48;;;14.10;99.90;;;;;;6381617;27;20301;-67
2022/11/11 07:15:07;;;;;;;3.83;1.58;;;14.10;99.90;;;;;;6364279;28;20606;-66
2022/11/11 07:18:32;;;;;;;3.10;1.40;;;14.10;99.90;;;;;;6363539;28;20265;-67
2022/11/11 07:21:56;;;;;;;5.65;1.90;;;14.10;99.90;;;;;;6364642;28;20289;-66
2022/11/11 07:25:19;;;;;;;4.53;1.80;;;14.20;99.90;;;;;;6364159;28;20289;-66
2022/11/11 07:28:42;;;;;;;3.08;1.50;;;14.20;99.90;;;;;;6364056;28;20293;-67
2022/11/11 07:32:06;;;;;;;6.18;1.45;;;14.20;99.90;;;;;;6363958;28;20265;-68
2022/11/11 07:35:31;;;;;;;4.55;2.15;;;14.30;99.90;;;;;;6363662;28;20293;-67
2022/11/11 07:38:55;;;;;;;5.05;1.60;;;14.30;99.90;;;;;;6363629;28;20472;-67
2022/11/11 07:42:18;;;;;;;5.70;1.70;;;14.30;99.90;;;;;;6364328;28;20289;-67
2022/11/11 07:45:54;;;;;;;4.78;1.85;;;14.30;99.90;;;;;;6363615;28;20296;-67
2022/11/11 07:49:17;;;;;;;5.32;2.15;;;14.30;99.90;;;;;;6363489;28;20289;-67
2022/11/11 07:52:48;;;;;;;5.53;1.88;;;14.30;99.90;;;;;;6363887;28;20259;-66
2022/11/11 07:56:12;;;;;;;4.47;1.83;;;14.30;99.90;;;;;;6362989;28;20289;-66
2022/11/11 07:59:36;;;;;;;5.22;1.63;;;14.40;99.90;;;;;;6386820;27;20583;-67
2022/11/11 08:02:59;;;;;;;4.90;1.65;;;14.40;99.90;;;;;;6389146;27;20285;-66
2022/11/11 08:06:29;;;;;;;5.07;2.00;;;14.40;99.90;;;;;;6388020;27;20529;-67
2022/11/11 08:09:54;;;;;;;4.45;1.83;;;14.40;99.90;;;;;;6388620;27;20296;-66
2022/11/11 08:16:58;;;;;;;9.23;2.30;;;14.40;99.90;;;;;;6389054;27;20268;-67
2022/11/11 08:20:21;;;;;;;8.80;2.25;;;14.40;99.90;;;;;;6388095;27;20293;-66
2022/11/11 08:23:45;;;;;;;5.07;2.20;;;14.40;99.90;;;;;;6387992;27;20301;-67
2022/11/11 08:27:29;;;;;;;11.85;2.30;;;14.40;99.90;;;;;;6388572;27;20498;-67
2022/11/11 08:30:53;;;;;;;5.00;2.00;;;14.50;99.90;;;;;;6388077;27;20296;-67
2022/11/11 08:34:16;;;;;;;6.97;2.20;;;14.50;99.90;;;;;;6387758;27;20292;-67
2022/11/11 08:37:39;;;;;;;7.90;2.40;;;14.50;99.90;;;;;;6388234;27;20564;-67
2022/11/11 08:41:05;;;;;;;7.15;2.15;;;14.50;99.90;;;;;;6387072;27;20292;-66
2022/11/11 08:44:30;;;;;;;10.45;2.38;;;14.50;99.90;;;;;;6387531;27;20456;-67
2022/11/11 08:47:53;;;;;;;6.60;2.25;;;14.50;99.90;;;;;;6388032;27;20269;-66
2022/11/11 08:51:17;;;;;;;7.03;2.10;;;14.50;99.90;;;;;;6387348;27;20272;-67
2022/11/11 08:54:41;;;;;;;5.80;2.20;;;14.50;99.90;;;;;;6387401;27;20301;-66
2022/11/11 08:58:06;;;;;;;8.82;2.30;;;14.50;99.90;;;;;;6387722;27;20293;-66
2022/11/11 09:01:31;;;;;;;8.80;2.30;;;14.50;99.90;;;;;;6386421;27;20265;-66
2022/11/11 09:04:54;;;;;;;9.23;2.40;;;14.60;99.90;;;;;;6387222;27;20600;-67
2022/11/11 09:08:17;;;;;;;6.15;2.38;;;14.60;99.90;;;;;;6386707;27;20268;-66
2022/11/11 09:11:41;;;;;;;6.07;2.45;;;14.50;99.90;;;;;;6379057;27;20265;-67
2022/11/11 09:15:06;;;;;;;9.50;2.40;;;14.60;99.90;;;;;;6361598;28;20608;-67
2022/11/11 09:18:31;;;;;;;7.25;2.20;;;14.60;99.90;;;;;;6361081;28;20265;-66
2022/11/11 09:21:55;;;;;;;7.35;2.28;;;14.70;99.90;;;;;;6361351;28;20265;-66
2022/11/11 09:25:19;;;;;;;7.80;2.53;;;14.70;99.90;;;;;;6360810;28;20297;-67
2022/11/11 09:28:42;;;;;;;7.78;2.22;;;14.70;99.90;;;;;;6360542;28;20293;-66
2022/11/11 09:32:08;;;;;;;9.38;2.30;;;14.70;99.90;;;;;;6361533;28;20262;-67
2022/11/11 09:35:34;;;;;;;7.88;2.10;;;14.70;99.90;;;;;;6361066;28;20301;-68
2022/11/11 09:38:58;;;;;;;11.30;2.58;;;14.70;99.90;;;;;;6360324;28;20293;-66
2022/11/11 09:42:36;;;;;;;9.20;2.50;;;14.70;99.90;;;;;;6361257;28;20266;-66
2022/11/11 09:46:15;;;;;;;5.85;2.75;;;14.80;99.90;;;;;;6360933;28;20566;-66
2022/11/11 09:49:52;;;;;;;6.75;2.30;;;14.80;99.90;;;;;;6360780;28;20301;-67
2022/11/11 09:53:20;;;;;;;8.00;2.25;;;14.80;99.90;;;;;;6360826;28;20266;-67
2022/11/11 09:56:45;;;;;;;12.85;2.45;;;14.80;99.90;;;;;;6360529;28;20264;-67
2022/11/11 10:00:17;;;;;;;7.38;2.60;;;14.80;99.90;;;;;;6360462;28;20297;-67
2022/11/11 10:03:48;;;;;;;8.30;2.08;;;14.90;99.90;;;;;;6360344;28;20293;-67
2022/11/11 10:07:18;;;;;;;8.70;2.53;;;14.90;99.90;;;;;;6360989;28;20453;-66
2022/11/11 10:10:46;;;;;;;9.30;2.22;;;14.90;99.90;;;;;;6360326;28;20300;-68
2022/11/11 10:14:10;;;;;;;6.10;2.20;;;15.00;99.90;;;;;;6360375;28;20292;-67
2022/11/11 10:17:37;;;;;;;7.43;2.38;;;14.90;99.90;;;;;;6361102;28;20261;-67
2022/11/11 10:21:01;;;;;;;5.15;2.05;;;14.90;99.90;;;;;;6360738;28;20305;-67
2022/11/11 10:24:30;;;;;;;9.15;2.33;;;14.90;99.90;;;;;;6360473;28;20297;-67
2022/11/11 10:28:00;;;;;;;11.73;2.58;;;14.90;99.90;;;;;;6360613;28;20435;-67
2022/11/11 10:31:24;;;;;;;7.70;2.20;;;14.90;99.90;;;;;;6359420;28;20264;-66
2022/11/11 10:34:47;;;;;;;6.82;2.10;;;15.00;99.90;;;;;;6359926;28;20306;-67
2022/11/11 10:38:23;;;;;;;8.38;2.38;;;14.90;99.90;;;;;;6360816;28;20261;-66
2022/11/11 10:41:48;;;;;;;7.78;2.50;;;15.00;99.90;;;;;;6359888;28;20274;-67
2022/11/11 10:45:22;;;;;;;8.38;1.85;;;15.00;99.90;;;;;;6359511;28;20289;-66
2022/11/11 10:48:54;;;;;;;7.50;2.20;;;15.00;99.90;;;;;;6359698;28;20288;-67
2022/11/11 10:52:21;;;;;;;13.00;2.50;;;15.00;99.90;;;;;;6360539;28;20261;-67
2022/11/11 10:55:49;;;;;;;7.88;2.60;;;15.00;99.90;;;;;;6360113;28;20297;-67
2022/11/11 10:59:19;;;;;;;8.02;2.22;;;15.00;99.90;;;;;;6379945;28;20576;-67
2022/11/11 11:02:50;;;;;;;7.55;2.60;;;15.10;99.90;;;;;;6385957;28;20268;-67
2022/11/11 11:06:18;;;;;;;13.52;2.20;;;15.10;99.90;;;;;;6388603;27;20486;-68
2022/11/11 11:09:48;;;;;;;7.07;2.20;;;15.20;99.90;;;;;;6389557;27;20296;-66
2022/11/11 11:13:17;;;;;;;5.78;2.22;;;15.20;99.90;;;;;;6390458;27;20265;-68
2022/11/11 11:16:47;;;;;;;8.55;1.90;;;15.10;99.90;;;;;;6389035;27;20281;-67
2022/11/11 11:20:15;;;;;;;8.15;2.35;;;15.10;99.90;;;;;;6389837;27;20292;-66
2022/11/11 11:23:41;;;;;;;4.78;1.73;;;15.10;99.90;;;;;;6389491;27;20288;-67
2022/11/11 11:27:07;;;;;;;5.40;2.10;;;15.10;99.90;;;;;;6389889;27;20265;-67
2022/11/11 11:30:30;;;;;;;9.63;2.40;;;15.10;99.90;;;;;;6389594;27;20584;-67
2022/11/11 11:33:55;;;;;;;4.38;2.40;;;15.10;99.90;;;;;;6389124;27;20296;-66
2022/11/11 11:37:22;;;;;;;5.82;1.92;;;15.10;99.90;;;;;;6389539;27;20265;-66
2022/11/11 11:40:51;;;;;;;5.40;1.85;;;15.20;99.90;;;;;;6389357;27;20296;-67
2022/11/11 11:44:28;;;;;;;7.72;1.90;;;15.20;99.90;;;;;;6389169;27;20487;-67
2022/11/11 11:48:19;;;;;;;3.03;2.03;;;15.20;99.90;;;;;;6389705;27;20284;-66
2022/11/11 11:52:06;;;;;;;4.25;1.80;;;15.30;99.90;;;;;;6388343;27;20284;-67
2022/11/11 11:55:37;;;;;;;4.00;2.00;;;15.30;99.90;;;;;;6388932;27;20299;-67
2022/11/11 11:59:09;;;;;;;6.05;1.75;;;15.30;99.90;;;;;;6388705;27;20484;-66
2022/11/11 12:02:53;;;;;;;2.85;2.03;;;15.40;99.90;;;;;;6388870;27;20564;-67
2022/11/11 12:06:22;;;;;;;4.97;1.70;;;15.40;99.90;;;;;;6388606;27;20332;-67
2022/11/11 12:09:59;;;;;;;3.35;1.50;;;15.40;99.90;;;;;;6388680;27;20292;-67
2022/11/11 12:13:37;;;;;;;1.73;1.63;;;15.40;99.90;;;;;;6388637;27;20312;-68
2022/11/11 12:17:07;;;;;;;2.55;1.30;;;15.50;99.90;;;;;;6388659;27;20556;-67
2022/11/11 12:20:39;;;;;;;6.10;1.80;;;15.50;99.90;;;;;;6388530;27;20292;-67
2022/11/11 12:24:11;;;;;;;2.95;1.40;;;15.50;99.90;;;;;;6387747;27;20300;-67
2022/11/11 12:27:44;;;;;;;9.15;1.88;;;15.50;99.90;;;;;;6388814;27;20264;-67
2022/11/11 12:31:25;;;;;;;3.15;1.23;;;15.50;99.90;;;;;;6388088;27;20485;-68
2022/11/11 12:35:30;;;;;;;2.90;1.73;;;15.60;99.90;;;;;;6388048;27;20288;-66
2022/11/11 12:38:59;;;;;;;2.42;1.45;;;15.50;99.90;;;;;;6387718;27;20391;-66
2022/11/11 12:42:35;;;;;;;1.70;1.60;;;15.50;99.90;;;;;;6388372;27;20260;-66
2022/11/11 12:46:06;;;;;;;9.50;1.70;;;15.40;99.90;;;;;;6387716;27;20605;-66
2022/11/11 12:49:50;;;;;;;1.63;1.35;;;15.50;99.90;;;;;;6387383;27;20288;-67
2022/11/11 12:53:25;;;;;;;2.05;1.52;;;15.50;99.90;;;;;;6388055;27;20545;-67
2022/11/11 12:56:54;;;;;;;2.50;1.30;;;15.60;99.90;;;;;;6386745;27;20268;-67
2022/11/11 13:00:20;;;;;;;1.83;1.38;;;15.50;99.90;;;;;;6361818;28;20284;-67
2022/11/11 13:04:00;;;;;;;3.47;1.65;;;15.60;99.90;;;;;;6362186;28;20448;-67
2022/11/11 13:08:06;;;;;;;7.25;1.90;;;15.60;99.90;;;;;;6354653;28;20465;-67
2022/11/11 13:11:37;;;;;;;2.85;2.70;;;15.50;99.90;;;;;;6356070;28;20265;-67
2022/11/11 13:15:05;;;;;;;1.33;1.23;;;15.50;99.90;;;;;;6361524;28;20361;-68
2022/11/11 13:18:39;;;;;;;1.92;1.02;;;15.60;99.90;;;;;;6361666;28;20265;-67
2022/11/11 13:22:11;;;;;;;2.17;1.20;;;15.50;99.90;;;;;;6361605;28;20265;-68
2022/11/11 13:25:39;;;;;;;1.60;1.50;;;15.50;99.90;;;;;;6361402;28;20292;-67
2022/11/11 13:29:35;;;;;;;1.85;1.33;;;15.50;99.90;;;;;;6361016;28;20296;-66
2022/11/11 13:33:03;;;;;;;1.98;1.20;;;15.50;99.90;;;;;;6361173;28;20453;-66
2022/11/11 13:36:28;;;;;;;1.25;1.05;;;15.50;99.90;;;;;;6360249;28;20283;-66
2022/11/11 13:39:52;;;;;;;2.42;1.40;;;15.50;99.90;;;;;;6361157;28;20305;-67
2022/11/11 13:43:27;;;;;;;3.47;1.33;;;15.50;99.90;;;;;;6361048;28;20440;-68
2022/11/11 13:46:51;;;;;;;3.45;1.20;;;15.40;99.90;;;;;;6361478;28;20292;-65
2022/11/11 13:50:29;;;;;;;2.13;1.20;;;15.40;99.90;;;;;;6361125;28;20326;-67
2022/11/11 13:53:53;;;;;;;3.35;1.40;;;15.40;99.90;;;;;;6360627;28;20297;-67
2022/11/11 13:57:21;;;;;;;1.30;1.30;;;15.50;99.90;;;;;;6363857;28;20293;-68
2022/11/11 14:00:46;;;;;;;9.30;1.33;;;15.50;99.90;;;;;;6381192;28;20300;-67
2022/11/11 14:04:12;;;;;;;3.72;1.10;;;15.50;99.90;;;;;;6386339;27;20292;-68
2022/11/11 14:07:55;;;;;;;2.17;1.10;;;15.50;99.90;;;;;;6386275;28;20288;-67
2022/11/11 14:11:31;;;;;;;1.35;1.27;;;15.50;99.90;;;;;;6385217;28;20460;-67
2022/11/11 14:14:57;;;;;;;4.93;1.40;;;15.50;99.90;;;;;;6385820;28;20586;-67
2022/11/11 14:18:43;;;;;;;1.05;1.05;;;15.50;99.90;;;;;;6385463;28;20265;-67
2022/11/11 14:22:29;;;;;;;1.88;1.20;;;15.40;99.90;;;;;;6386484;28;20268;-66
2022/11/11 14:26:23;;;;;;;1.30;1.30;;;15.40;99.90;;;;;;6385896;28;20292;-65
2022/11/11 14:29:51;;;;;;;1.27;1.23;;;15.50;99.90;;;;;;6385669;28;20297;-65
2022/11/11 14:33:27;;;;;;;2.33;1.20;;;15.50;99.90;;;;;;6386210;28;20268;-66
2022/11/11 14:36:57;;;;;;;4.05;1.20;;;15.50;99.90;;;;;;6385211;28;20264;-66
2022/11/11 14:40:26;;;;;;;3.88;1.27;;;15.50;99.90;;;;;;6387258;27;20304;-66
2022/11/11 14:43:49;;;;;;;6.20;1.23;;;15.50;99.90;;;;;;6390736;27;20580;-66
2022/11/11 14:47:31;;;;;;;2.72;1.10;;;15.50;99.90;;;;;;6391132;27;20292;-66
2022/11/11 14:50:55;;;;;;;1.80;1.30;;;15.50;99.90;;;;;;6390710;27;20292;-66
2022/11/11 14:54:43;;;;;;;4.60;1.40;;;15.50;99.90;;;;;;6390245;27;20479;-67
2022/11/11 14:58:12;;;;;;;7.38;1.27;;;15.50;99.90;;;;;;6390540;27;20372;-67
2022/11/11 15:01:36;;;;;;;2.72;1.20;;;15.50;99.90;;;;;;6389435;27;20264;-66
2022/11/11 15:05:01;;;;;;;4.60;1.27;;;15.50;99.90;;;;;;6389884;27;20290;-67
2022/11/11 15:08:25;;;;;;;5.05;1.42;;;15.50;99.90;;;;;;6379326;27;20569;-66
2022/11/11 15:11:56;;;;;;;1.95;1.13;;;15.50;99.90;;;;;;6374673;27;20264;-67
2022/11/11 15:15:24;;;;;;;4.07;1.55;;;15.50;99.90;;;;;;6372177;27;20308;-68
2022/11/11 15:19:15;;;;;;;4.38;1.83;;;15.50;99.90;;;;;;6389652;27;20305;-68
2022/11/11 15:22:50;;;;;;;3.27;2.40;;;15.50;99.90;;;;;;6373533;27;20506;-67
2022/11/11 15:26:21;;;;;;;2.33;1.70;;;15.60;99.90;;;;;;6364411;28;20528;-67
2022/11/11 15:30:09;;;;;;;5.45;2.20;;;15.50;99.90;;;;;;6383823;27;20292;-67
2022/11/11 15:33:46;;;;;;;2.38;2.08;;;15.60;99.90;;;;;;6389278;27;20260;-67
2022/11/11 15:37:16;;;;;;;2.95;1.75;;;15.60;99.90;;;;;;6389680;27;20272;-68
2022/11/11 15:40:45;;;;;;;8.45;2.03;;;15.50;99.90;;;;;;6389648;27;20300;-68
2022/11/11 15:44:21;;;;;;;4.60;1.90;;;15.60;99.90;;;;;;6389418;27;20292;-67
2022/11/11 15:47:47;;;;;;;7.93;2.03;;;15.50;99.90;;;;;;6389341;27;20300;-67
2022/11/11 15:51:29;;;;;;;2.40;1.55;;;15.50;99.90;;;;;;6388435;27;20470;-68
2022/11/11 15:54:53;;;;;;;2.42;1.90;;;15.50;99.90;;;;;;6388928;27;20294;-68
2022/11/11 15:58:24;;;;;;;11.35;2.03;;;15.50;99.90;;;;;;6388587;27;20296;-68
2022/11/11 16:01:48;;;;;;;2.25;1.70;;;15.50;99.90;;;;;;6389200;27;20294;-67
2022/11/11 16:05:21;;;;;;;2.88;1.77;;;15.40;99.90;;;;;;6388511;27;20613;-68
2022/11/11 16:08:46;;;;;;;4.85;1.85;;;15.50;99.90;;;;;;6388995;27;20292;-67
2022/11/11 16:12:12;;;;;;;4.32;1.70;;;15.40;99.90;;;;;;6389148;27;20261;-68
2022/11/11 16:15:42;;;;;;;2.95;2.00;;;15.40;99.90;;;;;;6388675;27;20289;-67
2022/11/11 16:19:15;;;;;;;3.85;1.95;;;15.50;99.90;;;;;;6388549;27;20292;-67
2022/11/11 16:22:41;;;;;;;2.05;1.35;;;15.50;99.90;;;;;;6382731;27;20268;-66
2022/11/11 16:26:04;;;;;;;3.25;1.80;;;15.50;99.90;;;;;;6387872;27;20293;-66
2022/11/11 16:29:33;;;;;;;3.35;1.92;;;15.50;99.90;;;;;;6388490;27;20293;-67
2022/11/11 16:32:57;;;;;;;7.50;2.03;;;15.40;99.90;;;;;;6388452;27;20268;-67
2022/11/11 16:36:20;;;;;;;5.88;2.00;;;15.40;99.90;;;;;;6387413;27;20446;-67
2022/11/11 16:39:46;;;;;;;5.93;1.88;;;15.40;99.90;;;;;;6388359;27;20296;-67
2022/11/11 16:43:20;;;;;;;2.72;1.55;;;15.40;99.90;;;;;;6388039;27;20264;-67
2022/11/11 16:46:44;;;;;;;1.85;1.55;;;15.30;99.90;;;;;;6382098;27;20269;-67
2022/11/11 16:50:09;;;;;;;4.20;1.23;;;15.30;99.90;;;;;;6387890;27;20288;-67
2022/11/11 16:53:35;;;;;;;1.83;1.30;;;15.20;99.90;;;;;;6387647;27;20269;-67
2022/11/11 16:57:00;;;;;;;1.58;1.20;;;15.20;99.90;;;;;;6387849;27;20520;-66
2022/11/11 17:00:24;;;;;;;3.75;1.27;;;15.20;99.90;;;;;;6387384;27;20292;-67
2022/11/11 17:03:54;;;;;;;1.70;1.33;;;15.10;99.90;;;;;;6386920;27;20315;-66
2022/11/11 17:07:31;;;;;;;2.85;1.50;;;15.00;99.90;;;;;;6387692;27;20268;-67
2022/11/11 17:10:55;;;;;;;2.42;1.17;;;15.00;99.90;;;;;;6385107;27;20296;-67
2022/11/11 17:14:20;;;;;;;2.97;1.80;;;14.90;99.90;;;;;;6379239;27;20599;-67
2022/11/11 17:17:45;;;;;;;3.17;1.55;;;14.90;99.90;;;;;;6387339;27;20269;-66
2022/11/11 17:21:08;;;;;;;1.50;1.50;;;14.90;99.90;;;;;;6387043;27;20292;-67
2022/11/11 17:24:31;;;;;;;2.65;1.27;;;15.00;99.90;;;;;;6386903;27;20293;-67
2022/11/11 17:27:55;;;;;;;4.13;1.42;;;15.00;99.90;;;;;;6387078;27;20288;-67
2022/11/11 17:31:20;;;;;;;4.13;1.60;;;14.80;99.90;;;;;;6385958;27;20265;-66
2022/11/11 17:34:44;;;;;;;3.15;2.10;;;14.80;99.90;;;;;;6386599;27;20292;-67
2022/11/11 17:38:07;;;;;;;4.07;2.25;;;14.80;99.90;;;;;;6386974;27;20265;-67
2022/11/11 17:41:30;;;;;;;2.85;2.10;;;14.90;99.90;;;;;;6385727;27;20264;-66
2022/11/11 17:44:53;;;;;;;5.70;2.53;;;14.90;99.90;;;;;;6386091;27;20595;-67
2022/11/11 17:48:18;;;;;;;4.10;2.20;;;14.90;99.90;;;;;;6386073;27;20288;-68
2022/11/11 17:51:42;;;;;;;9.30;4.85;;;14.80;99.90;;;;;;6387000;27;20264;-68
2022/11/11 17:55:06;;;;;;;10.10;3.53;;;14.90;99.90;;;;;;6385968;27;20308;-68
2022/11/11 17:58:30;;;;;;;11.20;4.70;;;14.80;99.90;;;;;;6384692;27;20501;-66
2022/11/11 18:01:53;;;;;;;4.90;2.35;;;15.00;99.90;;;;;;6386850;27;20281;-67
2022/11/11 18:05:18;;;;;;;6.15;2.20;;;14.90;99.90;;;;;;6386207;27;20588;-67
2022/11/11 18:08:42;;;;;;;4.95;2.55;;;14.90;99.90;;;;;;6386214;27;20300;-67
2022/11/11 18:12:06;;;;;;;8.13;2.40;;;14.80;99.90;;;;;;6386412;28;20260;-67
2022/11/11 18:15:30;;;;;;;15.30;3.25;;;14.80;99.90;;;;;;6390079;27;20296;-67
2022/11/11 18:18:58;;;;;;;11.18;2.70;;;14.70;99.90;;;;;;6391095;27;20305;-68
2022/11/11 18:22:23;;;;;;;7.53;2.13;;;14.70;99.90;;;;;;6391453;27;20264;-67
2022/11/11 18:25:46;;;;;;;5.97;2.55;;;14.70;99.90;;;;;;6391388;27;20592;-67
2022/11/11 18:29:11;;;;;;;7.40;2.67;;;14.70;99.90;;;;;;6390418;27;20356;-67
2022/11/11 18:32:34;;;;;;;6.63;2.28;;;14.70;99.90;;;;;;6391702;27;20264;-67
2022/11/11 18:36:05;;;;;;;6.72;2.75;;;14.70;99.90;;;;;;6390755;27;20326;-67
2022/11/11 18:39:29;;;;;;;8.85;3.00;;;14.70;99.90;;;;;;6388187;27;20362;-67
2022/11/11 18:42:53;;;;;;;6.63;2.58;;;14.60;99.90;;;;;;6391516;27;20261;-67
2022/11/11 18:46:20;;;;;;;8.07;2.53;;;14.70;99.90;;;;;;6390464;27;20296;-67
2022/11/11 18:49:44;;;;;;;9.85;2.78;;;14.80;99.90;;;;;;6390547;27;20301;-68
2022/11/11 18:53:10;;;;;;;9.25;2.80;;;14.70;99.90;;;;;;6391254;27;20268;-67
2022/11/11 18:56:38;;;;;;;11.82;3.25;;;14.70;99.90;;;;;;6389886;27;20268;-68
2022/11/11 19:00:02;;;;;;;6.63;2.58;;;14.70;99.90;;;;;;6364405;28;20292;-68
2022/11/11 19:03:26;;;;;;;7.90;2.58;;;14.80;99.90;;;;;;6364803;28;20450;-67
2022/11/11 19:06:49;;;;;;;9.20;2.65;;;14.80;99.90;;;;;;6364885;28;20265;-67
2022/11/11 19:10:14;;;;;;;11.35;3.28;;;14.80;99.90;;;;;;6363872;28;20305;-69